Time;durP1;ratioP1;P1;durP2;ratioP2;P2;SDS_P1;SDS_P2;PMS_P1;PMS_P2;Temp;Humidity;BMP_temperature;BMP_pressure;BME280_temperature;BME280_humidity;BME280_pressure;Samples;Min_cycle;Max_cycle;Signal;HPM_P1;HPM_P2
2021/12/29 00:00:25;;;;;;;;;20.50;16.25;;;;;8.37;100.00;99899.56;4990292;28;10472;-70
2021/12/29 00:02:53;;;;;;;;;19.50;12.75;;;;;8.35;100.00;99905.16;5004831;28;10716;-70
2021/12/29 00:05:21;;;;;;;;;16.75;14.25;;;;;8.35;100.00;99912.41;4989376;28;10564;-71
2021/12/29 00:07:48;;;;;;;;;19.00;11.00;;;;;8.38;100.00;99922.81;4989856;28;10503;-70
2021/12/29 00:10:16;;;;;;;;;8.50;7.75;;;;;8.35;100.00;99934.81;4989977;28;10398;-69
2021/12/29 00:12:46;;;;;;;;;12.00;10.50;;;;;8.35;100.00;99944.78;4990537;28;10383;-69
2021/12/29 00:15:16;;;;;;;;;15.00;14.50;;;;;8.35;100.00;99955.56;4989706;28;10422;-69
2021/12/29 00:17:45;;;;;;;;;9.75;9.00;;;;;8.33;100.00;99956.59;4989975;28;10615;-69
2021/12/29 00:20:14;;;;;;;;;21.25;13.50;;;;;8.31;100.00;99960.50;4989487;28;11135;-69
2021/12/29 00:22:41;;;;;;;;;8.50;6.50;;;;;8.33;100.00;99970.09;4988657;28;10434;-69
2021/12/29 00:25:09;;;;;;;;;12.50;12.50;;;;;8.37;100.00;99975.91;4990014;28;10251;-72
2021/12/29 00:27:36;;;;;;;;;16.75;16.25;;;;;8.34;100.00;99981.69;4989467;28;10421;-69
2021/12/29 00:30:06;;;;;;;;;14.00;14.00;;;;;8.38;100.00;99987.53;5003764;28;10516;-70
2021/12/29 00:32:53;;;;;;;;;11.25;11.25;;;;;8.36;100.00;99993.13;4992139;28;10567;-70
2021/12/29 00:35:41;;;;;;;;;15.50;13.75;;;;;8.32;100.00;99995.34;4989422;28;11109;-69
2021/12/29 00:38:23;;;;;;;;;14.75;12.75;;;;;8.33;100.00;99990.78;4989610;28;10618;-72
2021/12/29 00:41:16;;;;;;;;;11.00;11.00;;;;;8.32;100.00;100003.44;4988109;28;10444;-69
2021/12/29 00:44:15;;;;;;;;;8.75;7.00;;;;;8.29;100.00;100005.69;4987955;28;11001;-69
2021/12/29 00:47:02;;;;;;;;;15.25;14.00;;;;;8.29;100.00;100017.31;4987614;28;10986;-70
2021/12/29 00:49:35;;;;;;;;;11.25;11.25;;;;;8.28;100.00;100023.75;5003068;28;10337;-69
2021/12/29 00:52:05;;;;;;;;;12.75;9.00;;;;;8.28;100.00;100025.59;4989121;28;10588;-69
2021/12/29 00:54:32;;;;;;;;;11.50;10.25;;;;;8.30;100.00;100018.16;4989365;28;10416;-70
2021/12/29 00:56:59;;;;;;;;;12.50;11.00;;;;;8.29;100.00;100036.19;4988594;28;10499;-69
2021/12/29 00:59:26;;;;;;;;;10.75;10.75;;;;;8.31;100.00;100047.63;4988338;28;10470;-70
2021/12/29 01:01:53;;;;;;;;;12.00;12.00;;;;;8.30;100.00;100039.72;4987438;28;10440;-69
2021/12/29 01:04:20;;;;;;;;;16.75;14.75;;;;;8.29;100.00;100048.84;4988822;28;10356;-70
2021/12/29 01:06:47;;;;;;;;;14.00;10.25;;;;;8.27;100.00;100059.00;4988279;28;10638;-68
2021/12/29 01:09:14;;;;;;;;;14.50;12.75;;;;;8.27;100.00;100069.78;4987846;28;10329;-69
2021/12/29 01:11:42;;;;;;;;;12.25;11.75;;;;;8.26;100.00;100079.72;4988393;28;10540;-73
2021/12/29 01:14:09;;;;;;;;;12.25;10.50;;;;;8.35;100.00;100090.41;4989091;28;10505;-69
2021/12/29 01:16:36;;;;;;;;;16.25;12.25;;;;;8.31;100.00;100096.16;4988628;28;10516;-70
2021/12/29 01:19:17;;;;;;;;;14.75;14.50;;;;;8.31;100.00;100101.56;4989025;28;10426;-70
2021/12/29 01:21:46;;;;;;;;;13.00;13.00;;;;;8.34;100.00;100108.44;4988984;28;10599;-71
2021/12/29 01:24:14;;;;;;;;;26.25;18.00;;;;;8.30;100.00;100109.84;4988086;28;10608;-69
2021/12/29 01:26:43;;;;;;;;;20.50;19.50;;;;;8.30;100.00;100097.19;4988507;28;10532;-70
2021/12/29 01:29:11;;;;;;;;;18.00;14.00;;;;;8.32;100.00;100111.31;4988477;28;10586;-69
2021/12/29 01:31:38;;;;;;;;;22.50;19.50;;;;;8.29;100.00;100109.00;4988496;28;10427;-69
2021/12/29 01:34:05;;;;;;;;;15.00;14.00;;;;;8.30;100.00;100107.97;4988408;28;10618;-70
2021/12/29 01:36:34;;;;;;;;;20.50;18.50;;;;;8.30;100.00;100112.53;4988813;28;10899;-69
2021/12/29 01:39:02;;;;;;;;;19.00;14.50;;;;;8.30;100.00;100116.06;4987709;28;10534;-72
2021/12/29 01:41:29;;;;;;;;;18.50;16.50;;;;;8.28;100.00;100123.50;4987839;28;10582;-69
2021/12/29 01:43:55;;;;;;;;;15.25;14.00;;;;;8.29;100.00;100127.03;4987086;28;10830;-71
2021/12/29 01:46:22;;;;;;;;;11.50;9.50;;;;;8.29;100.00;100133.28;4986067;28;10532;-69
2021/12/29 01:48:50;;;;;;;;;18.75;13.25;;;;;8.30;100.00;100134.09;5000770;28;10562;-69
2021/12/29 01:51:18;;;;;;;;;20.50;18.50;;;;;8.30;100.00;100139.50;5001850;28;10359;-68
2021/12/29 01:54:01;;;;;;;;;23.25;18.00;;;;;8.29;100.00;100148.63;4987839;28;10615;-73
2021/12/29 01:56:29;;;;;;;;;15.50;14.50;;;;;8.29;100.00;100154.00;4987135;28;10647;-70
2021/12/29 01:58:55;;;;;;;;;16.00;11.00;;;;;8.31;100.00;100168.13;4988148;28;10347;-72
2021/12/29 02:01:23;;;;;;;;;17.75;15.25;;;;;8.31;100.00;100166.28;4988029;28;10323;-69
2021/12/29 02:03:52;;;;;;;;;10.75;7.00;;;;;8.30;100.00;100180.78;4988024;28;10360;-69
2021/12/29 02:06:18;;;;;;;;;12.75;10.00;;;;;8.32;100.00;100169.81;4987558;28;10334;-70
2021/12/29 02:08:45;;;;;;;;;12.50;9.00;;;;;8.36;100.00;100170.28;4986683;28;10404;-72
2021/12/29 02:11:11;;;;;;;;;11.00;10.25;;;;;8.35;100.00;100177.53;4988209;28;10346;-70
2021/12/29 02:13:38;;;;;;;;;12.50;12.25;;;;;8.32;100.00;100177.91;4987852;28;10442;-70
2021/12/29 02:16:04;;;;;;;;;11.25;10.50;;;;;8.35;100.00;100182.94;4987809;28;10488;-69
2021/12/29 02:18:34;;;;;;;;;8.50;8.50;;;;;8.40;100.00;100183.19;5002434;28;10512;-71
2021/12/29 02:21:00;;;;;;;;;13.00;11.50;;;;;8.35;100.00;100182.09;4988087;28;10314;-69
2021/12/29 02:23:35;;;;;;;;;11.75;11.75;;;;;8.38;100.00;100181.72;4987366;28;11244;-69
2021/12/29 02:26:02;;;;;;;;;12.50;12.00;;;;;8.33;100.00;100187.66;4987135;28;10480;-71
2021/12/29 02:28:34;;;;;;;;;14.50;14.50;;;;;8.38;100.00;100189.81;4986022;28;10449;-69
2021/12/29 02:31:03;;;;;;;;;13.00;12.50;;;;;8.33;100.00;100182.25;4986928;28;10475;-70
2021/12/29 02:33:30;;;;;;;;;7.50;7.00;;;;;8.32;100.00;100184.13;4987128;28;10486;-69
2021/12/29 02:35:59;;;;;;;;;8.50;7.25;;;;;8.35;100.00;100180.25;4986637;28;10496;-70
2021/12/29 02:38:29;;;;;;;;;7.00;6.50;;;;;8.34;100.00;100183.97;4987139;28;10243;-69
2021/12/29 02:41:03;;;;;;;;;8.25;6.00;;;;;8.32;100.00;100189.53;4986789;28;10284;-71
2021/12/29 02:43:32;;;;;;;;;8.50;7.75;;;;;8.34;100.00;100186.66;4986962;28;10041;-72
2021/12/29 02:45:59;;;;;;;;;9.50;7.00;;;;;8.31;100.00;100192.41;4986699;28;10283;-70
2021/12/29 02:48:29;;;;;;;;;8.00;8.00;;;;;8.32;100.00;100186.00;4986960;28;10945;-73
2021/12/29 02:50:56;;;;;;;;;7.25;6.00;;;;;8.31;100.00;100189.72;4987829;28;10177;-71
2021/12/29 02:53:24;;;;;;;;;9.25;8.00;;;;;8.32;100.00;100194.09;4987315;28;10375;-70
2021/12/29 02:55:54;;;;;;;;;10.00;8.00;;;;;8.34;100.00;100200.16;4986098;28;10427;-69
2021/12/29 02:58:22;;;;;;;;;2.50;1.75;;;;;8.35;100.00;100209.06;4986678;28;10332;-72
2021/12/29 03:00:50;;;;;;;;;13.25;7.75;;;;;8.33;100.00;100212.81;4991449;28;10052;-69
2021/12/29 03:03:20;;;;;;;;;7.50;4.00;;;;;8.35;100.00;100227.97;4991558;28;10413;-70
2021/12/29 03:05:47;;;;;;;;;10.75;6.50;;;;;8.35;100.00;100222.56;4991202;28;10009;-72
2021/12/29 03:08:16;;;;;;;;;9.75;4.00;;;;;8.34;100.00;100237.91;4990775;28;10010;-69
2021/12/29 03:10:45;;;;;;;;;3.00;3.00;;;;;8.36;100.00;100233.16;4988824;28;10123;-71
2021/12/29 03:13:11;;;;;;;;;7.75;4.00;;;;;8.35;100.00;100238.75;4990071;28;10974;-70
2021/12/29 03:15:39;;;;;;;;;4.00;3.00;;;;;8.39;100.00;100248.13;4990265;28;11148;-69
2021/12/29 03:18:06;;;;;;;;;1.50;1.00;;;;;8.38;100.00;100258.06;4989997;28;10195;-69
2021/12/29 03:20:33;;;;;;;;;4.75;3.25;;;;;8.37;100.00;100253.72;4989845;28;10001;-69
2021/12/29 03:22:59;;;;;;;;;6.00;3.50;;;;;8.41;100.00;100265.78;4990089;28;10150;-70
2021/12/29 03:25:27;;;;;;;;;4.00;4.00;;;;;8.42;100.00;100269.31;4991138;28;10147;-68
2021/12/29 03:28:01;;;;;;;;;4.75;3.00;;;;;8.46;100.00;100284.13;4990809;28;10798;-71
2021/12/29 03:30:29;;;;;;;;;2.00;1.00;;;;;8.46;100.00;100292.22;4990865;28;9910;-71
2021/12/29 03:33:05;;;;;;;;;2.00;2.00;;;;;8.45;100.00;100290.56;4990785;28;9948;-70
2021/12/29 03:35:34;;;;;;;;;2.00;2.00;;;;;8.47;100.00;100296.59;4990347;28;10001;-70
2021/12/29 03:38:05;;;;;;;;;2.75;2.25;;;;;8.47;100.00;100297.41;4990245;28;9853;-69
2021/12/29 03:40:35;;;;;;;;;5.00;1.75;;;;;8.50;100.00;100298.91;4990565;28;10081;-71
2021/12/29 03:43:04;;;;;;;;;2.00;2.00;;;;;8.51;100.00;100303.28;4990624;28;10017;-69
2021/12/29 03:45:30;;;;;;;;;2.00;2.00;;;;;8.52;100.00;100296.84;4989456;28;10117;-70
2021/12/29 03:47:57;;;;;;;;;2.75;2.75;;;;;8.53;100.00;100306.63;5003909;28;9937;-69
2021/12/29 03:50:24;;;;;;;;;4.25;2.00;;;;;8.51;100.00;100308.66;4989904;28;11237;-74
2021/12/29 03:52:50;;;;;;;;;5.25;3.00;;;;;8.48;100.00;100311.75;5006000;28;9980;-69
2021/12/29 03:55:17;;;;;;;;;7.25;6.00;;;;;8.48;100.00;100317.97;4990030;28;10207;-69
2021/12/29 03:57:43;;;;;;;;;5.00;1.25;;;;;8.50;100.00;100321.31;4990262;28;10012;-69
2021/12/29 04:00:13;;;;;;;;;3.00;3.00;;;;;8.50;100.00;100320.50;4987937;28;9766;-73
2021/12/29 04:02:41;;;;;;;;;2.00;2.00;;;;;8.49;100.00;100319.66;4989661;28;10013;-71
2021/12/29 04:05:11;;;;;;;;;0.25;0.25;;;;;8.50;100.00;100312.38;4990109;28;9878;-70
2021/12/29 04:07:38;;;;;;;;;1.25;1.25;;;;;8.46;100.00;100309.25;5004346;28;9923;-71
2021/12/29 04:10:06;;;;;;;;;1.75;1.75;;;;;8.50;100.00;100317.78;4989839;28;9961;-70
2021/12/29 04:12:33;;;;;;;;;2.25;2.25;;;;;8.47;100.00;100319.00;4990184;28;10024;-67
2021/12/29 04:15:00;;;;;;;;;2.00;1.00;;;;;8.46;100.00;100320.03;4990138;28;9929;-68
2021/12/29 04:17:36;;;;;;;;;1.00;1.00;;;;;8.49;100.00;100321.50;4988836;28;9964;-70
2021/12/29 04:22:50;;;;;;;;;1.25;1.25;;;;;8.50;100.00;100312.38;4989785;28;9896;-67
2021/12/29 04:25:19;;;;;;;;;2.00;2.00;;;;;8.48;100.00;100317.13;4988072;28;9951;-71
2021/12/29 04:27:47;;;;;;;;;2.00;2.00;;;;;8.48;100.00;100323.38;4988429;28;9790;-68
2021/12/29 04:30:13;;;;;;;;;2.00;2.00;;;;;8.48;100.00;100330.63;4989294;28;9998;-70
2021/12/29 04:32:40;;;;;;;;;0.00;0.00;;;;;8.48;100.00;100333.31;4988287;28;9945;-68
2021/12/29 04:35:06;;;;;;;;;3.75;2.00;;;;;8.51;100.00;100338.34;4989099;28;9921;-68
2021/12/29 04:37:33;;;;;;;;;1.00;1.00;;;;;8.49;100.00;100343.09;4987502;28;10002;-71
2021/12/29 04:39:59;;;;;;;;;1.00;1.00;;;;;8.51;100.00;100354.53;4988514;28;10338;-71
2021/12/29 04:42:26;;;;;;;;;3.00;1.50;;;;;8.50;100.00;100356.38;4989437;28;9851;-72
2021/12/29 04:44:52;;;;;;;;;2.00;1.00;;;;;8.50;100.00;100355.56;5004614;28;9969;-71
2021/12/29 04:47:19;;;;;;;;;0.00;0.00;;;;;8.48;100.00;100363.00;4987623;28;10055;-71
2021/12/29 04:49:45;;;;;;;;;2.00;2.00;;;;;8.53;100.00;100365.97;4989459;28;10635;-71
2021/12/29 04:52:13;;;;;;;;;0.00;0.00;;;;;8.49;100.00;100364.69;4989437;28;9894;-72
2021/12/29 04:54:40;;;;;;;;;1.00;1.00;;;;;8.49;100.00;100365.50;4988354;28;9664;-70
2021/12/29 04:57:06;;;;;;;;;1.00;1.00;;;;;8.47;100.00;100375.66;5004394;28;9880;-71
2021/12/29 04:59:33;;;;;;;;;2.00;2.00;;;;;8.46;100.00;100382.06;4987536;28;9869;-71
2021/12/29 05:01:59;;;;;;;;;2.25;1.75;;;;;8.49;100.00;100378.16;4988747;28;9859;-72
2021/12/29 05:04:32;;;;;;;;;0.75;0.75;;;;;8.47;100.00;100375.66;4988497;28;9839;-72
2021/12/29 05:09:48;;;;;;;;;1.00;0.00;;;;;8.42;100.00;100374.50;4988901;28;9910;-70
2021/12/29 05:12:14;;;;;;;;;1.75;1.75;;;;;8.42;100.00;100385.31;4989221;28;9630;-71
2021/12/29 05:14:41;;;;;;;;;3.50;3.00;;;;;8.39;100.00;100383.81;4987884;28;9910;-71
2021/12/29 05:17:07;;;;;;;;;1.50;0.75;;;;;8.37;100.00;100385.88;4989090;28;9939;-71
2021/12/29 05:19:35;;;;;;;;;3.00;3.00;;;;;8.36;100.00;100383.34;5003986;28;9908;-71
2021/12/29 05:22:04;;;;;;;;;1.00;1.00;;;;;8.38;100.00;100390.25;4986607;28;9985;-71
2021/12/29 05:24:30;;;;;;;;;4.25;2.75;;;;;8.37;100.00;100393.13;4987311;28;10007;-70
2021/12/29 05:26:58;;;;;;;;;3.00;2.00;;;;;8.39;100.00;100394.59;4988564;28;9935;-68
2021/12/29 05:29:25;;;;;;;;;2.00;1.00;;;;;8.35;100.00;100406.78;4988182;28;9862;-72
2021/12/29 05:31:52;;;;;;;;;1.50;1.50;;;;;8.41;100.00;100406.03;4988673;28;9750;-72
2021/12/29 05:34:18;;;;;;;;;1.00;1.00;;;;;8.39;100.00;100408.09;4988526;28;9891;-71
2021/12/29 05:36:45;;;;;;;;;5.25;3.00;;;;;8.36;100.00;100411.16;4986903;28;9765;-71
2021/12/29 05:39:11;;;;;;;;;5.00;5.00;;;;;8.39;100.00;100418.06;4986172;28;9969;-71
2021/12/29 05:41:38;;;;;;;;;2.75;2.00;;;;;8.38;100.00;100422.59;4988101;28;9921;-70
2021/12/29 05:44:05;;;;;;;;;2.50;2.00;;;;;8.36;100.00;100421.13;4986833;28;10068;-72
2021/12/29 05:46:32;;;;;;;;;4.00;3.25;;;;;8.34;100.00;100418.59;4988189;28;10612;-72
2021/12/29 05:48:58;;;;;;;;;3.25;3.00;;;;;8.35;100.00;100419.44;4986767;28;10032;-72
2021/12/29 05:51:25;;;;;;;;;2.75;1.75;;;;;8.32;100.00;100420.63;4986694;28;10240;-71
2021/12/29 05:53:51;;;;;;;;;2.50;2.50;;;;;8.32;100.00;100432.25;5003155;28;10151;-70
2021/12/29 05:56:18;;;;;;;;;2.75;2.75;;;;;8.35;100.00;100419.44;4988190;28;10179;-71
2021/12/29 05:58:44;;;;;;;;;2.25;2.25;;;;;8.36;100.00;100427.34;4988253;28;10851;-71
2021/12/29 06:01:11;;;;;;;;;6.25;4.50;;;;;8.33;100.00;100422.31;4988249;28;10143;-72
2021/12/29 06:03:38;;;;;;;;;1.00;1.00;;;;;8.35;100.00;100425.69;4987362;28;10117;-72
2021/12/29 06:06:04;;;;;;;;;2.00;2.00;;;;;8.40;100.00;100427.81;4987626;28;9934;-72
2021/12/29 06:08:31;;;;;;;;;4.00;4.00;;;;;8.36;100.00;100427.34;4987794;28;10035;-72
2021/12/29 06:10:58;;;;;;;;;2.00;2.00;;;;;8.37;100.00;100426.31;4987517;28;9938;-71
2021/12/29 06:13:24;;;;;;;;;2.75;2.75;;;;;8.40;100.00;100435.91;4986736;28;10041;-73
2021/12/29 06:15:50;;;;;;;;;2.25;1.50;;;;;8.42;100.00;100433.84;4987769;28;10622;-72
2021/12/29 06:18:17;;;;;;;;;2.00;2.00;;;;;8.42;100.00;100434.69;4987585;28;9849;-73
2021/12/29 06:20:43;;;;;;;;;1.00;1.00;;;;;8.43;100.00;100446.34;4986121;28;10790;-72
2021/12/29 06:23:13;;;;;;;;;3.50;1.00;;;;;8.39;100.00;100450.41;4987527;28;9977;-70
2021/12/29 06:25:40;;;;;;;;;6.50;2.25;;;;;8.42;100.00;100447.34;4987831;28;9923;-72
2021/12/29 06:28:06;;;;;;;;;3.00;1.75;;;;;8.41;100.00;100438.41;4970262;28;9995;-71
2021/12/29 06:30:33;;;;;;;;;1.75;1.75;;;;;8.39;100.00;100432.38;5002964;28;10001;-72
2021/12/29 06:32:59;;;;;;;;;3.50;3.00;;;;;8.39;100.00;100443.16;5000753;28;9942;-72
2021/12/29 06:35:26;;;;;;;;;2.25;2.25;;;;;8.39;100.00;100448.56;5001753;28;10044;-73
2021/12/29 06:37:52;;;;;;;;;4.50;1.75;;;;;8.37;100.00;100449.75;4984544;28;9938;-72
2021/12/29 06:40:19;;;;;;;;;5.50;3.00;;;;;8.35;100.00;100443.72;5002414;28;9885;-72
2021/12/29 06:42:45;;;;;;;;;6.00;3.00;;;;;8.38;100.00;100454.97;4987180;28;9889;-73
2021/12/29 06:45:12;;;;;;;;;3.00;2.50;;;;;8.38;100.00;100462.22;4987681;28;10173;-73
2021/12/29 06:47:39;;;;;;;;;1.25;1.25;;;;;8.39;100.00;100470.13;4987097;28;10011;-73
2021/12/29 06:50:07;;;;;;;;;6.50;5.00;;;;;8.33;100.00;100470.84;4987332;28;9781;-73
2021/12/29 06:52:33;;;;;;;;;4.50;2.50;;;;;8.36;100.00;100475.06;4985903;28;10066;-72
2021/12/29 06:55:01;;;;;;;;;5.00;5.00;;;;;8.32;100.00;100478.09;4970214;28;9940;-73
2021/12/29 06:57:27;;;;;;;;;3.50;3.50;;;;;8.39;100.00;100480.09;4969576;28;10044;-73
2021/12/29 06:59:53;;;;;;;;;1.00;1.00;;;;;8.42;100.00;100482.41;4987254;28;10152;-72
2021/12/29 07:02:20;;;;;;;;;1.00;1.00;;;;;8.40;100.00;100484.47;4985734;28;9769;-72
2021/12/29 07:04:48;;;;;;;;;4.00;3.00;;;;;8.39;100.00;100489.03;4987261;28;9787;-72
2021/12/29 07:07:19;;;;;;;;;2.25;2.25;;;;;8.40;100.00;100496.09;4986536;28;9889;-73
2021/12/29 07:09:46;;;;;;;;;1.75;1.75;;;;;8.39;100.00;100497.09;4985995;28;10768;-73
2021/12/29 07:12:12;;;;;;;;;5.00;3.75;;;;;8.39;100.00;100493.56;4987216;28;10037;-72
2021/12/29 07:14:39;;;;;;;;;5.75;3.25;;;;;8.38;100.00;100492.75;4985792;28;10221;-72
2021/12/29 07:17:06;;;;;;;;;7.25;6.25;;;;;8.38;100.00;100498.13;4986684;28;10091;-73
2021/12/29 07:19:33;;;;;;;;;4.00;4.00;;;;;8.37;100.00;100496.47;4987237;28;10366;-72
2021/12/29 07:22:01;;;;;;;;;2.75;1.75;;;;;8.38;100.00;100511.63;4985637;28;10216;-71
2021/12/29 07:24:28;;;;;;;;;4.00;2.00;;;;;8.40;100.00;100519.53;4985433;28;10187;-73
2021/12/29 07:26:54;;;;;;;;;3.00;3.00;;;;;8.38;100.00;100524.28;4986920;28;9865;-72
2021/12/29 07:29:21;;;;;;;;;1.75;1.75;;;;;8.41;100.00;100534.69;4986348;28;10083;-71
2021/12/29 07:31:48;;;;;;;;;1.00;1.00;;;;;8.38;100.00;100529.66;4985233;28;10065;-70
2021/12/29 07:34:21;;;;;;;;;6.00;4.00;;;;;8.34;100.00;100529.19;4987335;28;10028;-73
2021/12/29 07:36:49;;;;;;;;;5.50;4.00;;;;;8.36;100.00;100537.94;4984727;28;10048;-71
2021/12/29 07:39:16;;;;;;;;;3.00;3.00;;;;;8.38;100.00;100532.34;4985372;28;10149;-73
2021/12/29 07:41:44;;;;;;;;;2.50;2.00;;;;;8.38;100.00;100529.66;4987011;28;10032;-73
2021/12/29 07:44:18;;;;;;;;;2.00;2.00;;;;;8.38;100.00;100541.28;4984949;28;10189;-72
2021/12/29 07:46:48;;;;;;;;;1.00;1.00;;;;;8.37;100.00;100530.69;4988766;28;10838;-72
2021/12/29 07:49:15;;;;;;;;;3.00;2.00;;;;;8.35;100.00;100536.25;4989665;28;9857;-73
2021/12/29 07:51:42;;;;;;;;;3.50;2.00;;;;;8.39;100.00;100536.72;4990432;28;10131;-73
2021/12/29 07:54:10;;;;;;;;;2.00;1.50;;;;;8.37;100.00;100542.31;4990476;28;10028;-73
2021/12/29 07:56:37;;;;;;;;;1.00;1.00;;;;;8.39;100.00;100534.88;4990417;28;10141;-73
2021/12/29 07:59:03;;;;;;;;;2.50;1.25;;;;;8.39;100.00;100532.19;4989579;28;9915;-73
2021/12/29 08:01:30;;;;;;;;;1.50;1.00;;;;;8.40;100.00;100530.31;4990226;28;10057;-73
2021/12/29 08:03:57;;;;;;;;;1.00;1.00;;;;;8.40;100.00;100533.00;4987965;28;9795;-72
2021/12/29 08:06:24;;;;;;;;;1.00;1.00;;;;;8.40;100.00;100536.56;5005162;28;9840;-72
2021/12/29 08:08:50;;;;;;;;;0.00;0.00;;;;;8.38;100.00;100521.56;4989879;28;10091;-73
2021/12/29 08:11:19;;;;;;;;;0.00;0.00;;;;;8.40;100.00;100528.47;4988794;28;9875;-71
2021/12/29 08:13:46;;;;;;;;;1.00;1.00;;;;;8.41;100.00;100529.28;5004172;28;9739;-72
2021/12/29 08:16:13;;;;;;;;;2.00;1.00;;;;;8.40;100.00;100528.47;5004413;28;10560;-70
2021/12/29 08:18:40;;;;;;;;;2.25;1.75;;;;;8.41;100.00;100530.13;4988499;28;9890;-72
2021/12/29 08:21:06;;;;;;;;;1.00;1.00;;;;;8.42;100.00;100536.38;4988798;28;9925;-72
2021/12/29 08:23:33;;;;;;;;;0.00;0.00;;;;;8.42;100.00;100539.91;4989522;28;10007;-72
2021/12/29 08:26:00;;;;;;;;;2.50;2.50;;;;;8.42;100.00;100548.00;4989958;28;9891;-72
2021/12/29 08:28:26;;;;;;;;;1.00;1.00;;;;;8.41;100.00;100557.09;5004477;28;9755;-72
2021/12/29 08:30:54;;;;;;;;;1.50;1.50;;;;;8.40;100.00;100552.72;4989674;28;9854;-72
2021/12/29 08:33:21;;;;;;;;;2.00;1.50;;;;;8.40;100.00;100563.53;4989882;28;10098;-73
2021/12/29 08:35:48;;;;;;;;;3.25;2.25;;;;;8.37;100.00;100553.09;4989583;28;9845;-71
2021/12/29 08:38:15;;;;;;;;;1.75;1.75;;;;;8.39;100.00;100555.63;4988891;28;9936;-72
2021/12/29 08:40:41;;;;;;;;;2.25;1.00;;;;;8.38;100.00;100560.16;5004537;28;9920;-72
2021/12/29 08:43:08;;;;;;;;;1.00;1.00;;;;;8.40;100.00;100554.59;4989009;28;10712;-71
2021/12/29 08:45:35;;;;;;;;;2.25;0.50;;;;;8.42;100.00;100560.63;5003712;28;10021;-72
2021/12/29 08:48:02;;;;;;;;;0.00;0.00;;;;;8.47;100.00;100556.41;4987801;28;9855;-72
2021/12/29 08:50:31;;;;;;;;;1.00;1.00;;;;;8.46;100.00;100553.88;4987706;28;9880;-71
2021/12/29 08:52:59;;;;;;;;;1.00;1.00;;;;;8.45;100.00;100554.91;5004178;28;9812;-72
2021/12/29 08:55:26;;;;;;;;;2.00;2.00;;;;;8.38;100.00;100562.88;5003218;28;10672;-72
2021/12/29 08:57:52;;;;;;;;;1.25;1.25;;;;;8.40;100.00;100550.03;4988534;28;9912;-71
2021/12/29 09:00:20;;;;;;;;;0.00;0.00;;;;;8.43;100.00;100549.69;4987717;28;9919;-72
2021/12/29 09:02:47;;;;;;;;;2.50;2.25;;;;;8.43;100.00;100543.47;4987145;28;10029;-71
2021/12/29 09:05:16;;;;;;;;;3.25;1.50;;;;;8.43;100.00;100554.25;4986605;28;10095;-71
2021/12/29 09:07:45;;;;;;;;;2.00;2.00;;;;;8.44;100.00;100545.97;4985829;28;9869;-72
2021/12/29 09:10:13;;;;;;;;;3.50;1.50;;;;;8.43;100.00;100549.69;4988065;28;9876;-71
2021/12/29 09:12:40;;;;;;;;;2.00;2.00;;;;;8.44;100.00;100540.59;4988662;28;9940;-71
2021/12/29 09:15:07;;;;;;;;;3.00;3.00;;;;;8.44;100.00;100545.16;4988922;28;10166;-72
2021/12/29 09:17:34;;;;;;;;;1.75;1.75;;;;;8.43;100.00;100538.06;4987549;28;10091;-73
2021/12/29 09:20:02;;;;;;;;;1.00;1.00;;;;;8.43;100.00;100543.47;4987855;28;10011;-72
2021/12/29 09:22:29;;;;;;;;;2.00;2.00;;;;;8.46;100.00;100543.09;4985256;28;10055;-72
2021/12/29 09:24:55;;;;;;;;;1.00;1.00;;;;;8.44;100.00;100551.38;5002499;28;9946;-71
2021/12/29 09:27:22;;;;;;;;;3.00;3.00;;;;;8.44;100.00;100535.19;4986891;28;9829;-73
2021/12/29 09:29:48;;;;;;;;;3.00;3.00;;;;;8.49;100.00;100531.94;4988634;28;10011;-72
2021/12/29 09:32:14;;;;;;;;;2.50;2.50;;;;;8.48;100.00;100520.31;4988396;28;9917;-72
2021/12/29 09:34:41;;;;;;;;;1.75;1.75;;;;;8.50;100.00;100515.56;4988639;28;10006;-73
2021/12/29 09:37:07;;;;;;;;;1.75;1.75;;;;;8.53;100.00;100517.88;4986737;28;9870;-72
2021/12/29 09:39:34;;;;;;;;;3.00;2.00;;;;;8.54;100.00;100534.91;4987598;28;9806;-70
2021/12/29 09:42:01;;;;;;;;;3.50;1.75;;;;;8.55;100.00;100537.44;4988207;28;9887;-72
2021/12/29 09:44:27;;;;;;;;;2.00;1.00;;;;;8.55;100.00;100536.59;4987637;28;9894;-73
2021/12/29 09:46:54;;;;;;;;;5.00;2.00;;;;;8.55;100.00;100550.91;4987038;28;9844;-72
2021/12/29 09:49:22;;;;;;;;;1.00;1.00;;;;;8.54;100.00;100543.84;4987484;28;9993;-73
2021/12/29 09:51:50;;;;;;;;;3.50;3.50;;;;;8.56;100.00;100536.41;4987540;28;9912;-72
2021/12/29 09:54:18;;;;;;;;;3.00;3.00;;;;;8.55;100.00;100526.63;5002595;28;9778;-71
2021/12/29 09:56:44;;;;;;;;;4.75;3.00;;;;;8.54;100.00;100533.06;4986657;28;10089;-73
2021/12/29 09:59:11;;;;;;;;;5.75;5.75;;;;;8.55;100.00;100529.34;5002107;28;10009;-73
2021/12/29 10:01:37;;;;;;;;;3.50;3.00;;;;;8.57;100.00;100523.75;4984347;28;10016;-72
2021/12/29 10:04:05;;;;;;;;;4.00;4.00;;;;;8.61;100.00;100506.16;4987868;28;10068;-73
2021/12/29 10:06:31;;;;;;;;;7.00;4.00;;;;;8.65;100.00;100499.38;4987599;28;9959;-72
2021/12/29 10:09:10;;;;;;;;;2.00;2.00;;;;;8.68;100.00;100499.03;5002715;28;10064;-71
2021/12/29 10:11:37;;;;;;;;;2.00;2.00;;;;;8.68;100.00;100503.59;4987506;28;10155;-72
2021/12/29 10:14:11;;;;;;;;;4.00;4.00;;;;;8.68;100.00;100501.72;5002523;28;10107;-72
2021/12/29 10:16:39;;;;;;;;;5.25;2.50;;;;;8.67;100.00;100496.50;5001552;28;9924;-72
2021/12/29 10:19:08;;;;;;;;;2.25;2.25;;;;;8.72;100.00;100489.53;4987228;28;10190;-72
2021/12/29 10:21:40;;;;;;;;;6.25;5.00;;;;;8.74;100.00;100486.66;4986909;28;9945;-72
2021/12/29 10:24:06;;;;;;;;;8.50;7.25;;;;;8.71;100.00;100493.25;4986809;28;10184;-71
2021/12/29 10:26:45;;;;;;;;;2.00;2.00;;;;;8.76;100.00;100493.53;4985351;28;11021;-72
2021/12/29 10:29:15;;;;;;;;;6.75;5.25;;;;;8.73;100.00;100495.78;5002240;28;9877;-72
2021/12/29 10:31:56;;;;;;;;;4.75;4.75;;;;;8.74;100.00;100484.78;4987002;28;10007;-72
2021/12/29 10:34:26;;;;;;;;;9.00;7.50;;;;;8.76;100.00;100485.44;4986076;28;10141;-74
2021/12/29 10:37:13;;;;;;;;;6.00;6.00;;;;;8.78;100.00;100493.34;4987395;28;10174;-72
2021/12/29 10:39:43;;;;;;;;;6.25;5.50;;;;;8.75;100.00;100481.06;5002136;28;10149;-71
2021/12/29 10:42:16;;;;;;;;;8.00;6.75;;;;;8.77;100.00;100479.00;4987370;28;10226;-71
2021/12/29 10:44:47;;;;;;;;;7.75;7.75;;;;;8.73;100.00;100472.31;4985882;28;10313;-71
2021/12/29 10:47:25;;;;;;;;;5.75;5.00;;;;;8.74;100.00;100470.47;4968221;28;10253;-72
2021/12/29 10:49:53;;;;;;;;;8.75;8.00;;;;;8.74;100.00;100473.16;4987069;28;10165;-71
2021/12/29 10:52:40;;;;;;;;;7.00;6.00;;;;;8.77;100.00;100487.13;4986258;28;10167;-74
2021/12/29 10:55:16;;;;;;;;;4.50;2.50;;;;;8.76;100.00;100492.69;4987448;28;10060;-72
2021/12/29 10:57:44;;;;;;;;;9.25;6.25;;;;;8.79;100.00;100497.72;4986681;28;10015;-72
2021/12/29 11:00:30;;;;;;;;;5.00;5.00;;;;;8.75;100.00;100510.75;4985436;28;10061;-73
2021/12/29 11:03:19;;;;;;;;;7.25;5.50;;;;;8.77;100.00;100508.72;4986961;28;10151;-71
2021/12/29 11:05:53;;;;;;;;;8.50;8.25;;;;;8.74;100.00;100510.94;4986615;28;10341;-70
2021/12/29 11:08:19;;;;;;;;;7.00;7.00;;;;;8.68;100.00;100511.69;4986383;28;10080;-71
2021/12/29 11:10:47;;;;;;;;;8.75;7.00;;;;;8.69;100.00;100514.19;4986877;28;10307;-71
2021/12/29 11:13:25;;;;;;;;;9.00;9.00;;;;;8.61;100.00;100508.88;4985501;28;9947;-73
2021/12/29 11:15:54;;;;;;;;;7.25;7.25;;;;;8.62;100.00;100499.75;5001122;28;10268;-69
2021/12/29 11:18:21;;;;;;;;;7.25;7.25;;;;;8.59;100.00;100494.72;4986218;28;10385;-70
2021/12/29 11:20:53;;;;;;;;;9.75;9.00;;;;;8.54;100.00;100486.34;4988376;28;10086;-72
2021/12/29 11:23:20;;;;;;;;;10.00;6.50;;;;;8.53;100.00;100474.72;4989629;28;10101;-72
2021/12/29 11:25:48;;;;;;;;;10.50;9.00;;;;;8.57;100.00;100480.59;4988701;28;10410;-72
2021/12/29 11:28:27;;;;;;;;;5.50;5.50;;;;;8.56;100.00;100468.94;4989295;28;10344;-72
2021/12/29 11:30:56;;;;;;;;;5.50;5.50;;;;;8.57;100.00;100473.31;5003992;28;10108;-72
2021/12/29 11:33:24;;;;;;;;;13.00;10.00;;;;;8.54;100.00;100468.31;4988432;28;10230;-72
2021/12/29 11:35:53;;;;;;;;;6.75;6.75;;;;;8.53;100.00;100477.41;4987855;28;10197;-71